»·PEaware :: AAL955 KSAN-KLAS

AAL955 :: KSAN-KLAS

FLIGHT INFORMATION

Flight Status: Arrived
Operator:
American Airlines
More flights by this operator :: More flights under this callsign
Pilot: Kevin M. (7)
Aircraft: BOEING 737-800
(B738)
More flights by this aircraft type
Origin: KSAN San Diego Intl-Lindbergh
United States
Destination: KLAS McCarran Intl
United States
More flights between these airports :: More routes between these airports
Route: PADRZ2 CHKNN SEBBY YELAH MISEN KEPEC6
File this flight plan on PilotEdge
Remarks:
Altitude:
(Current/Filed)
31,000ft
Speed:
(Current/Filed)
468kts
Departed: 27-Jun-20 07:52 PM
Arrived: 27-Jun-20 08:48 PM
Distance/Time
Traveled:
225nm/0:56
Distance/Time
To Go:
Arrived

Flight Plot

Page will automatically refresh every two minutes.

Flight plan parsing failed; only flown route is shown


Map Options




Map Legend


Flown Route
Filed Route
Departure Airport
Arrival Airport
Navaid (VOR, NDB)
Fix

Horizontal Profiles

Position Reports

Time Latitude Longitude Heading Altitude Ground
Speed
27-Jun-20 19:34 32.733695 -117.197690 254 28ft 0kts
27-Jun-20 19:35 32.733695 -117.197690 254 28ft 0kts
27-Jun-20 19:36 32.733695 -117.197690 254 28ft 0kts
27-Jun-20 19:37 32.733695 -117.197690 254 28ft 0kts
27-Jun-20 19:38 32.733695 -117.197690 254 28ft 0kts
27-Jun-20 19:39 32.733695 -117.197690 254 28ft 0kts
27-Jun-20 19:40 32.733695 -117.197690 254 28ft 0kts
27-Jun-20 19:41 32.733695 -117.197690 254 28ft 0kts
27-Jun-20 19:42 32.733695 -117.197690 254 28ft 0kts
27-Jun-20 19:43 32.733714 -117.197607 254 28ft 2kts
27-Jun-20 19:44 32.733444 -117.197106 5 28ft 2kts
27-Jun-20 19:45 32.733311 -117.197152 21 28ft 0kts
27-Jun-20 19:46 32.733311 -117.197152 21 28ft 0kts
27-Jun-20 19:47 32.733341 -117.197139 21 28ft 4kts
27-Jun-20 19:48 32.732921 -117.191401 105 28ft 32kts
27-Jun-20 19:49 32.730552 -117.181567 106 28ft 29kts
27-Jun-20 19:50 32.730351 -117.176345 284 28ft 12kts
27-Jun-20 19:51 32.736502 -117.201557 286 415ft 179kts
27-Jun-20 19:52 32.763770 -117.255966 302 3457ft 220kts
27-Jun-20 19:53 32.803528 -117.325111 306 6316ft 272kts
27-Jun-20 19:54 32.850710 -117.397582 307 9781ft 285kts
27-Jun-20 19:55 32.903393 -117.479325 307 11738ft 343kts
27-Jun-20 19:56 32.966173 -117.577102 307 13766ft 384kts
27-Jun-20 19:57 33.031810 -117.679562 307 16618ft 395kts
27-Jun-20 19:58 33.108713 -117.775143 319 19189ft 406kts
27-Jun-20 19:59 33.197023 -117.865034 319 21472ft 418kts
27-Jun-20 20:00 33.298765 -117.931282 353 23448ft 432kts
27-Jun-20 20:01 33.420246 -117.916087 6 25209ft 446kts
27-Jun-20 20:02 33.543194 -117.892009 8 26787ft 455kts
27-Jun-20 20:03 33.668506 -117.866130 8 28496ft 457kts
27-Jun-20 20:04 33.792576 -117.840024 8 30383ft 452kts
27-Jun-20 20:05 33.909252 -117.815313 8 30934ft 447kts
27-Jun-20 20:06 34.030404 -117.783938 20 30940ft 450kts
27-Jun-20 20:07 34.132257 -117.692576 42 30939ft 463kts
27-Jun-20 20:08 34.220075 -117.578694 45 30943ft 463kts
27-Jun-20 20:09 34.304000 -117.460791 46 30931ft 464kts
27-Jun-20 20:10 34.386596 -117.341371 47 30920ft 462kts
27-Jun-20 20:11 34.468966 -117.220510 48 30920ft 463kts
27-Jun-20 20:12 34.550607 -117.099869 48 30914ft 463kts
27-Jun-20 20:13 34.632165 -116.978820 48 30850ft 464kts
27-Jun-20 20:14 34.713463 -116.857676 48 30787ft 452kts
27-Jun-20 20:15 34.792781 -116.739081 48 30788ft 454kts
27-Jun-20 20:16 34.877582 -116.625674 39 29554ft 444kts
27-Jun-20 20:17 34.969690 -116.533416 35 27285ft 417kts
27-Jun-20 20:18 35.062416 -116.443078 35 24853ft 430kts
27-Jun-20 20:19 35.149463 -116.344234 42 23794ft 434kts
27-Jun-20 20:20 35.233961 -116.238978 43 23788ft 431kts
27-Jun-20 20:21 35.318101 -116.133498 43 23789ft 432kts
27-Jun-20 20:22 35.402080 -116.027794 43 23789ft 432kts
27-Jun-20 20:23 35.484601 -115.923561 43 23630ft 425kts
27-Jun-20 20:24 35.568150 -115.817720 43 19421ft 445kts
27-Jun-20 20:25 35.653620 -115.708824 45 14630ft 431kts
27-Jun-20 20:26 35.730553 -115.610671 37 13040ft 357kts
27-Jun-20 20:27 35.807061 -115.545924 41 12152ft 332kts
27-Jun-20 20:28 35.874964 -115.470760 41 10299ft 323kts
27-Jun-20 20:29 35.941534 -115.397509 36 10024ft 323kts
27-Jun-20 20:30 36.008047 -115.362121 31 9710ft 329kts
27-Jun-20 20:31 36.072473 -115.288083 69 7850ft 296kts
27-Jun-20 20:32 36.072143 -115.203814 95 5705ft 217kts
27-Jun-20 20:33 36.079563 -115.132343 54 4142ft 216kts
27-Jun-20 20:34 36.127092 -115.100309 354 3179ft 190kts
27-Jun-20 20:35 36.170247 -115.129411 286 4626ft 177kts
27-Jun-20 20:36 36.173718 -115.190134 252 5495ft 178kts
27-Jun-20 20:37 36.136629 -115.221494 190 5810ft 170kts
27-Jun-20 20:38 36.088363 -115.212800 156 5906ft 182kts
27-Jun-20 20:39 36.054069 -115.159274 116 6061ft 219kts
27-Jun-20 20:40 36.032366 -115.089347 115 6067ft 216kts
27-Jun-20 20:41 36.017015 -115.017871 92 6046ft 214kts
27-Jun-20 20:42 36.028080 -114.945973 45 5909ft 227kts
27-Jun-20 20:43 36.081789 -114.963198 283 4905ft 214kts
27-Jun-20 20:44 36.081899 -115.028791 262 3649ft 198kts
27-Jun-20 20:45 36.076614 -115.092602 264 2685ft 178kts
27-Jun-20 20:46 36.076366 -115.147095 268 2152ft 83kts
27-Jun-20 20:47 36.078002 -115.157544 81 2152ft 9kts
27-Jun-20 20:48 36.077774 -115.147861 90 2152ft 36kts
27-Jun-20 20:49 36.079245 -115.141430 22 2152ft 19kts
27-Jun-20 20:50 36.079891 -115.140441 58 2152ft 0kts
27-Jun-20 20:51 36.079891 -115.140441 58 2152ft 0kts
27-Jun-20 20:52 36.079891 -115.140441 58 2152ft 0kts

Navigation Log

Ident Type
Flight plan parsing failed, navigation log unavailable